Time;durP1;ratioP1;P1;durP2;ratioP2;P2;SDS_P1;SDS_P2;PMS_P1;PMS_P2;Temp;Humidity;BMP_temperature;BMP_pressure;BME280_temperature;BME280_humidity;BME280_pressure;Samples;Min_cycle;Max_cycle;Signal;HPM_P1;HPM_P2
2023/08/13 00:00:01;;;;;;;6.78;5.05;;;22.60;99.90;;;;;;5001108;28;20410;-53
2023/08/13 00:02:47;;;;;;;6.93;5.50;;;22.60;99.90;;;;;;5013895;28;20114;-49
2023/08/13 00:05:32;;;;;;;6.80;5.40;;;22.60;99.90;;;;;;5012585;28;20034;-50
2023/08/13 00:08:18;;;;;;;5.57;5.03;;;22.60;99.90;;;;;;5009958;28;20025;-54
2023/08/13 00:11:11;;;;;;;7.63;5.22;;;22.60;99.90;;;;;;5011294;28;20112;-52
2023/08/13 00:13:57;;;;;;;6.65;5.38;;;22.60;99.90;;;;;;5011096;28;20376;-53
2023/08/13 00:16:44;;;;;;;5.95;5.32;;;22.60;99.90;;;;;;5012072;28;20076;-53
2023/08/13 00:19:30;;;;;;;8.00;5.35;;;22.70;99.90;;;;;;5008670;28;20344;-52
2023/08/13 00:22:16;;;;;;;6.60;5.32;;;22.70;99.90;;;;;;5011575;28;20061;-50
2023/08/13 00:25:02;;;;;;;6.78;5.55;;;22.70;99.90;;;;;;5011603;28;20058;-51
2023/08/13 00:27:48;;;;;;;6.20;5.18;;;22.80;99.90;;;;;;5012623;28;20738;-55
2023/08/13 00:30:35;;;;;;;5.72;5.20;;;22.70;99.90;;;;;;5013627;28;20080;-47
2023/08/13 00:33:21;;;;;;;7.38;5.63;;;22.70;99.90;;;;;;5013609;28;20018;-48
2023/08/13 00:36:07;;;;;;;5.75;5.15;;;22.60;99.90;;;;;;4999048;28;20018;-49
2023/08/13 00:38:52;;;;;;;5.93;5.25;;;22.70;99.90;;;;;;5013942;28;20101;-47
2023/08/13 00:41:39;;;;;;;7.88;5.68;;;22.60;99.90;;;;;;5012639;28;20030;-49
2023/08/13 00:44:25;;;;;;;6.53;5.20;;;22.60;99.90;;;;;;5011738;28;20037;-47
2023/08/13 00:47:11;;;;;;;5.82;5.18;;;22.50;99.90;;;;;;5012308;28;20026;-50
2023/08/13 00:49:58;;;;;;;5.95;4.40;;;22.50;99.90;;;;;;5013144;28;20121;-49
2023/08/13 00:52:44;;;;;;;5.68;4.75;;;22.50;99.90;;;;;;5012968;28;20037;-52
2023/08/13 00:55:31;;;;;;;6.63;4.15;;;22.40;99.90;;;;;;5013215;28;20406;-50
2023/08/13 00:58:17;;;;;;;5.80;4.35;;;22.30;99.90;;;;;;5013346;28;20112;-50
2023/08/13 01:01:03;;;;;;;4.72;4.22;;;22.20;99.90;;;;;;5013286;28;20040;-55
2023/08/13 01:03:49;;;;;;;5.80;4.25;;;22.30;99.90;;;;;;5013237;28;20034;-55
2023/08/13 01:06:53;;;;;;;5.82;4.70;;;22.30;99.90;;;;;;5012658;28;20033;-56
2023/08/13 01:09:54;;;;;;;4.60;4.10;;;22.30;99.90;;;;;;5012747;28;20049;-55
2023/08/13 01:13:12;;;;;;;6.93;4.22;;;22.30;99.90;;;;;;5012127;28;20038;-57
2023/08/13 01:15:59;;;;;;;5.43;4.20;;;22.30;99.90;;;;;;5012517;28;20398;-54
2023/08/13 01:18:46;;;;;;;4.95;4.55;;;22.20;99.90;;;;;;5012757;28;20041;-55
2023/08/13 01:21:32;;;;;;;5.10;4.50;;;22.20;99.90;;;;;;5012016;28;20414;-52
2023/08/13 01:24:17;;;;;;;4.85;4.45;;;22.20;99.90;;;;;;5012116;28;20022;-57
2023/08/13 01:27:25;;;;;;;6.32;4.53;;;22.20;99.90;;;;;;5012069;28;20062;-56
2023/08/13 01:30:19;;;;;;;5.85;4.30;;;22.10;99.90;;;;;;5011366;28;20403;-45
2023/08/13 01:33:08;;;;;;;4.60;4.18;;;22.10;99.90;;;;;;5012039;28;20026;-48
2023/08/13 01:35:57;;;;;;;8.15;4.70;;;22.00;99.90;;;;;;5011764;28;20537;-48
2023/08/13 01:38:45;;;;;;;4.85;4.30;;;22.00;99.90;;;;;;5011683;28;20068;-52
2023/08/13 01:41:43;;;;;;;5.32;4.70;;;22.00;99.90;;;;;;5012786;28;20030;-53
2023/08/13 01:44:29;;;;;;;8.00;4.70;;;21.90;99.90;;;;;;5013334;28;20116;-55
2023/08/13 01:47:15;;;;;;;5.90;4.60;;;21.80;99.90;;;;;;5012563;28;20037;-55
2023/08/13 01:50:01;;;;;;;5.22;4.20;;;21.80;99.90;;;;;;5012104;28;20069;-52
2023/08/13 01:52:47;;;;;;;6.00;4.43;;;21.80;99.90;;;;;;5011823;28;20458;-56
2023/08/13 01:55:34;;;;;;;6.68;4.63;;;21.80;99.90;;;;;;4996818;28;20101;-54
2023/08/13 01:58:20;;;;;;;4.80;4.13;;;21.70;99.90;;;;;;5011423;28;20030;-54
2023/08/13 02:01:06;;;;;;;6.22;4.30;;;21.60;99.90;;;;;;5012050;28;20054;-52
2023/08/13 02:03:52;;;;;;;5.35;4.07;;;21.60;99.90;;;;;;5011721;28;20080;-53
2023/08/13 02:06:38;;;;;;;8.60;4.85;;;21.60;99.90;;;;;;4996966;28;20033;-55
2023/08/13 02:09:24;;;;;;;5.15;4.18;;;21.50;99.90;;;;;;5010919;28;20030;-56
2023/08/13 02:12:09;;;;;;;6.15;3.95;;;21.60;99.90;;;;;;5011311;28;20088;-55
2023/08/13 02:14:55;;;;;;;4.47;4.03;;;21.50;99.90;;;;;;5012171;28;20038;-56
2023/08/13 02:17:41;;;;;;;6.25;4.30;;;21.30;99.90;;;;;;5011644;28;20556;-56
2023/08/13 02:20:27;;;;;;;4.95;4.45;;;21.40;99.90;;;;;;5012194;28;20033;-56
2023/08/13 02:23:13;;;;;;;6.07;4.60;;;21.30;99.90;;;;;;5012334;28;20037;-55
2023/08/13 02:25:59;;;;;;;6.30;4.30;;;21.30;99.90;;;;;;5011542;28;20394;-55
2023/08/13 02:28:45;;;;;;;5.22;4.32;;;21.30;99.90;;;;;;5011751;28;20088;-52
2023/08/13 02:31:31;;;;;;;6.00;4.32;;;21.30;99.90;;;;;;5010966;28;20041;-56
2023/08/13 02:34:17;;;;;;;4.78;4.38;;;21.30;99.90;;;;;;5012413;28;20052;-53
2023/08/13 02:37:03;;;;;;;5.03;4.45;;;21.30;99.90;;;;;;5011021;28;20053;-56
2023/08/13 02:39:49;;;;;;;5.78;4.40;;;21.20;99.90;;;;;;5011699;28;20102;-56
2023/08/13 02:42:35;;;;;;;5.10;4.45;;;21.20;99.90;;;;;;5011274;28;20041;-54
2023/08/13 02:45:21;;;;;;;4.75;4.25;;;21.20;99.90;;;;;;5011686;28;20121;-56
2023/08/13 02:48:07;;;;;;;6.68;4.57;;;21.20;99.90;;;;;;5011149;28;20030;-47
2023/08/13 02:50:53;;;;;;;10.45;4.70;;;21.20;99.90;;;;;;4996233;28;20037;-48
2023/08/13 02:53:40;;;;;;;5.75;4.18;;;21.20;99.90;;;;;;5011399;28;20057;-49
2023/08/13 02:56:25;;;;;;;5.38;3.85;;;21.20;99.90;;;;;;5011184;28;20108;-53
2023/08/13 02:59:11;;;;;;;6.60;4.63;;;21.10;99.90;;;;;;5011320;28;20403;-53
2023/08/13 03:01:57;;;;;;;5.20;4.40;;;21.10;99.90;;;;;;5011781;28;20614;-48
2023/08/13 03:04:43;;;;;;;4.93;4.25;;;21.20;99.90;;;;;;5011186;28;20026;-47
2023/08/13 03:07:29;;;;;;;5.78;4.25;;;21.20;99.90;;;;;;5010972;28;20452;-48
2023/08/13 03:10:15;;;;;;;5.45;4.35;;;21.20;99.90;;;;;;5001056;28;20030;-55
2023/08/13 03:13:01;;;;;;;5.72;4.13;;;21.20;99.90;;;;;;5015738;28;20041;-53
2023/08/13 03:15:47;;;;;;;5.97;4.63;;;21.20;99.90;;;;;;5001119;28;20107;-56
2023/08/13 03:18:33;;;;;;;6.10;4.78;;;21.20;99.90;;;;;;5015566;28;20030;-54
2023/08/13 03:21:19;;;;;;;5.88;4.47;;;21.10;99.90;;;;;;5014801;28;20060;-56
2023/08/13 03:24:05;;;;;;;5.65;4.97;;;21.10;99.90;;;;;;5014859;28;20113;-54
2023/08/13 03:26:52;;;;;;;6.65;4.80;;;21.10;99.90;;;;;;5014380;28;20117;-55
2023/08/13 03:29:38;;;;;;;5.40;4.40;;;21.10;99.90;;;;;;5015245;28;20030;-55
2023/08/13 03:32:24;;;;;;;5.35;4.32;;;21.10;99.90;;;;;;5014740;28;20412;-52
2023/08/13 03:35:10;;;;;;;4.82;4.05;;;21.00;99.90;;;;;;5014406;28;20655;-56
2023/08/13 03:37:56;;;;;;;4.60;3.88;;;21.00;99.90;;;;;;5013719;28;20089;-56
2023/08/13 03:40:43;;;;;;;5.75;4.03;;;21.00;99.90;;;;;;4999776;28;20034;-55
2023/08/13 03:43:29;;;;;;;4.82;4.32;;;21.00;99.90;;;;;;5014353;28;20096;-54
2023/08/13 03:46:15;;;;;;;5.53;4.32;;;20.90;99.90;;;;;;5014001;28;20498;-56
2023/08/13 03:49:00;;;;;;;6.18;5.40;;;20.90;99.90;;;;;;5014041;28;20045;-55
2023/08/13 03:51:46;;;;;;;7.03;4.53;;;21.00;99.90;;;;;;4999668;28;20026;-51
2023/08/13 03:54:32;;;;;;;7.07;5.10;;;21.00;99.90;;;;;;5013848;28;20045;-47
2023/08/13 03:57:18;;;;;;;6.40;4.72;;;21.00;99.90;;;;;;5013589;28;20048;-52
2023/08/13 04:00:05;;;;;;;6.32;4.55;;;21.00;99.90;;;;;;5014317;28;20026;-52
2023/08/13 04:02:51;;;;;;;5.63;4.65;;;20.90;99.90;;;;;;5013204;28;20068;-49
2023/08/13 04:05:37;;;;;;;5.30;4.80;;;20.90;99.90;;;;;;5014078;28;20026;-50
2023/08/13 04:08:23;;;;;;;6.10;4.10;;;20.90;99.90;;;;;;5013159;28;20026;-45
2023/08/13 04:11:09;;;;;;;5.05;4.55;;;20.90;99.90;;;;;;5014048;28;20048;-45
2023/08/13 04:13:55;;;;;;;6.55;4.88;;;20.90;99.90;;;;;;5013887;28;20445;-46
2023/08/13 04:16:41;;;;;;;6.07;4.50;;;20.90;99.90;;;;;;5014533;28;20018;-51
2023/08/13 04:19:27;;;;;;;5.75;4.97;;;20.90;99.90;;;;;;4997538;28;20467;-48
2023/08/13 04:22:13;;;;;;;6.38;4.63;;;20.90;99.90;;;;;;5013047;28;20483;-47
2023/08/13 04:24:59;;;;;;;5.53;4.40;;;20.90;99.90;;;;;;4999484;28;20030;-46
2023/08/13 04:27:45;;;;;;;6.30;4.20;;;20.90;99.90;;;;;;5013178;28;20045;-46
2023/08/13 04:30:31;;;;;;;7.55;4.88;;;21.00;99.90;;;;;;5013501;28;20034;-49
2023/08/13 04:33:17;;;;;;;4.97;4.47;;;21.00;99.90;;;;;;5013817;28;20033;-49
2023/08/13 04:36:03;;;;;;;6.47;4.60;;;21.10;99.90;;;;;;5013373;28;20022;-47
2023/08/13 04:38:48;;;;;;;5.50;4.47;;;21.10;99.90;;;;;;5013748;28;20026;-52
2023/08/13 04:41:34;;;;;;;4.75;4.20;;;21.20;99.90;;;;;;4998679;28;20037;-53
2023/08/13 04:44:20;;;;;;;6.57;4.68;;;21.20;99.90;;;;;;5013887;28;20034;-46
2023/08/13 04:47:06;;;;;;;6.15;4.95;;;21.20;99.90;;;;;;5012872;28;20041;-45
2023/08/13 04:49:52;;;;;;;4.97;4.47;;;21.30;99.90;;;;;;5013352;28;20116;-47
2023/08/13 04:52:39;;;;;;;5.03;4.32;;;21.30;99.90;;;;;;5012433;28;20032;-46
2023/08/13 04:55:25;;;;;;;5.82;4.22;;;21.20;99.90;;;;;;5012493;28;20116;-45
2023/08/13 04:58:11;;;;;;;5.18;4.68;;;21.20;99.90;;;;;;4997465;28;20109;-53
2023/08/13 05:00:57;;;;;;;5.65;4.35;;;21.20;99.90;;;;;;5013038;28;20033;-47
2023/08/13 05:03:44;;;;;;;7.22;5.22;;;21.20;99.90;;;;;;5013567;28;20030;-48
2023/08/13 05:06:30;;;;;;;5.35;4.82;;;21.10;99.90;;;;;;5012739;28;20081;-47
2023/08/13 05:09:16;;;;;;;5.45;4.75;;;21.10;99.90;;;;;;5011994;28;20527;-50
2023/08/13 05:12:02;;;;;;;4.97;4.18;;;21.10;99.90;;;;;;5012919;28;20442;-53
2023/08/13 05:14:48;;;;;;;4.75;4.22;;;21.10;99.90;;;;;;4998640;28;20029;-56
2023/08/13 05:17:35;;;;;;;4.80;4.30;;;21.20;99.90;;;;;;4998486;28;20026;-51
2023/08/13 05:20:21;;;;;;;6.35;4.40;;;21.20;99.90;;;;;;4997747;28;20026;-54
2023/08/13 05:23:07;;;;;;;4.80;4.30;;;21.20;99.90;;;;;;5012092;28;20030;-50
2023/08/13 05:25:53;;;;;;;5.57;4.43;;;21.20;99.90;;;;;;5012887;28;20052;-49
2023/08/13 05:28:40;;;;;;;4.75;4.25;;;21.20;99.90;;;;;;5012738;28;20030;-50
2023/08/13 05:31:26;;;;;;;4.50;4.05;;;21.20;99.90;;;;;;5011164;28;20038;-54
2023/08/13 05:34:11;;;;;;;6.00;4.78;;;21.30;99.90;;;;;;4998208;28;20401;-49
2023/08/13 05:36:57;;;;;;;5.30;4.80;;;21.40;99.90;;;;;;5010970;28;20394;-50
2023/08/13 05:39:43;;;;;;;4.70;4.20;;;21.40;99.90;;;;;;5011661;28;20052;-47
2023/08/13 05:42:29;;;;;;;6.05;4.57;;;21.40;99.90;;;;;;5011264;28;20038;-51
2023/08/13 05:45:15;;;;;;;7.68;4.60;;;21.40;99.90;;;;;;5012232;28;20033;-50
2023/08/13 05:48:01;;;;;;;5.97;4.30;;;21.40;99.90;;;;;;5013848;28;20026;-57
2023/08/13 05:50:47;;;;;;;11.55;4.68;;;21.40;99.90;;;;;;5010951;28;20038;-52
2023/08/13 05:53:33;;;;;;;5.60;4.00;;;21.50;99.90;;;;;;5012212;28;20187;-50
2023/08/13 05:56:19;;;;;;;4.90;4.40;;;21.60;99.90;;;;;;5011326;28;20022;-53
2023/08/13 05:59:05;;;;;;;7.95;4.30;;;21.70;99.90;;;;;;5011173;28;20033;-52
2023/08/13 06:01:51;;;;;;;6.43;4.68;;;21.80;99.90;;;;;;5009567;28;20034;-48
2023/08/13 06:04:37;;;;;;;4.97;4.47;;;21.90;99.90;;;;;;4990594;28;20030;-49
2023/08/13 06:07:23;;;;;;;6.22;4.43;;;22.00;99.90;;;;;;5008245;28;20041;-50
2023/08/13 06:10:09;;;;;;;6.53;4.60;;;22.00;99.90;;;;;;5008960;28;20030;-48
2023/08/13 06:12:55;;;;;;;5.55;4.68;;;22.10;99.90;;;;;;5011348;28;20022;-51
2023/08/13 06:15:41;;;;;;;6.80;4.72;;;22.20;99.90;;;;;;5010867;28;20026;-50
2023/08/13 06:18:27;;;;;;;6.32;4.25;;;22.30;99.90;;;;;;5007767;28;20037;-48
2023/08/13 06:21:13;;;;;;;7.20;5.07;;;22.50;99.90;;;;;;5006485;28;20041;-53
2023/08/13 06:23:59;;;;;;;5.68;4.35;;;22.60;99.90;;;;;;4995413;28;20031;-51
2023/08/13 06:26:45;;;;;;;4.30;3.90;;;22.70;99.90;;;;;;5012975;28;20056;-48
2023/08/13 06:29:31;;;;;;;4.82;3.90;;;22.80;99.90;;;;;;5010614;28;20034;-50
2023/08/13 06:32:17;;;;;;;4.13;3.45;;;22.80;99.90;;;;;;5005100;28;20030;-51
2023/08/13 06:35:03;;;;;;;4.68;4.10;;;22.80;99.90;;;;;;5010567;28;20160;-50
2023/08/13 06:37:49;;;;;;;4.97;3.60;;;22.80;99.90;;;;;;5010158;28;20030;-47
2023/08/13 06:40:35;;;;;;;6.72;3.65;;;22.90;99.90;;;;;;5009947;28;20034;-60
2023/08/13 06:43:21;;;;;;;7.95;4.53;;;22.90;99.90;;;;;;5011792;28;20707;-51
2023/08/13 06:46:07;;;;;;;48.53;14.73;;;22.90;99.90;;;;;;5009940;28;20407;-49
2023/08/13 06:48:53;;;;;;;10.15;5.68;;;22.90;99.90;;;;;;5012817;28;20483;-46
2023/08/13 06:51:39;;;;;;;9.68;4.40;;;23.00;99.90;;;;;;5004855;28;20034;-50
2023/08/13 06:54:25;;;;;;;5.50;3.70;;;23.00;99.90;;;;;;5012622;28;20026;-49
2023/08/13 06:57:11;;;;;;;5.38;3.75;;;23.10;99.90;;;;;;5012703;28;20022;-51
2023/08/13 06:59:57;;;;;;;6.18;3.25;;;23.20;99.90;;;;;;5011696;28;20088;-47
2023/08/13 07:02:43;;;;;;;6.32;3.55;;;23.30;99.90;;;;;;5011290;28;20595;-51
2023/08/13 07:05:29;;;;;;;4.03;3.17;;;23.50;99.90;;;;;;5012740;28;20134;-48
2023/08/13 07:08:15;;;;;;;4.20;3.33;;;23.70;99.90;;;;;;5015082;28;20034;-47
2023/08/13 07:11:01;;;;;;;5.93;3.83;;;23.70;99.90;;;;;;5014868;28;20383;-52
2023/08/13 07:13:51;;;;;;;6.18;4.03;;;23.70;99.90;;;;;;5013592;28;20025;-47
2023/08/13 07:16:37;;;;;;;5.05;4.32;;;23.70;99.90;;;;;;5015021;28;20117;-48
2023/08/13 07:19:22;;;;;;;6.50;4.10;;;23.70;99.90;;;;;;5014644;28;20032;-48
2023/08/13 07:22:08;;;;;;;5.20;3.95;;;23.60;99.90;;;;;;5000569;28;20065;-48
2023/08/13 07:24:54;;;;;;;5.50;4.18;;;23.70;99.90;;;;;;5015040;28;20026;-47
2023/08/13 07:27:41;;;;;;;4.57;3.25;;;23.60;99.90;;;;;;5014408;28;20030;-48
2023/08/13 07:30:27;;;;;;;5.85;5.10;;;23.60;99.90;;;;;;5013398;28;20056;-45
2023/08/13 07:33:13;;;;;;;6.38;4.15;;;23.50;99.90;;;;;;5013569;28;20449;-45
2023/08/13 07:36:00;;;;;;;4.78;3.47;;;23.60;99.90;;;;;;5013980;28;20022;-50
2023/08/13 07:38:46;;;;;;;6.00;4.07;;;23.60;99.90;;;;;;5013645;28;20038;-49
2023/08/13 07:41:32;;;;;;;4.80;4.13;;;23.80;99.90;;;;;;5012825;28;20041;-48
2023/08/13 07:44:18;;;;;;;5.30;3.72;;;24.00;99.90;;;;;;5000024;28;20045;-48
2023/08/13 07:47:05;;;;;;;6.05;4.00;;;24.10;99.90;;;;;;5013382;28;20094;-51
2023/08/13 07:49:51;;;;;;;8.20;4.40;;;24.00;99.90;;;;;;5013105;28;20392;-49
2023/08/13 07:52:37;;;;;;;4.43;3.83;;;23.90;99.90;;;;;;4999053;28;20061;-46
2023/08/13 07:55:23;;;;;;;5.03;3.78;;;24.00;99.90;;;;;;5013085;28;20063;-48
2023/08/13 07:58:08;;;;;;;4.75;3.80;;;24.10;99.90;;;;;;5013303;28;20106;-49
2023/08/13 08:00:54;;;;;;;4.43;3.78;;;24.30;99.90;;;;;;5013650;28;20041;-46
2023/08/13 08:03:41;;;;;;;5.28;4.20;;;24.30;99.90;;;;;;5012381;28;20037;-49
2023/08/13 08:06:27;;;;;;;4.78;3.72;;;24.30;99.90;;;;;;4998885;28;20034;-52
2023/08/13 08:09:12;;;;;;;5.22;3.97;;;24.50;99.90;;;;;;5013670;28;20758;-45
2023/08/13 08:11:58;;;;;;;6.57;4.35;;;24.70;99.90;;;;;;5013464;28;20033;-44
2023/08/13 08:14:44;;;;;;;6.85;4.25;;;24.70;98.60;;;;;;5013097;28;20105;-45
2023/08/13 08:17:31;;;;;;;5.93;4.07;;;24.50;99.20;;;;;;5012436;28;20064;-45
2023/08/13 08:20:17;;;;;;;4.57;3.80;;;24.60;99.40;;;;;;5012597;28;20022;-51
2023/08/13 08:23:03;;;;;;;5.13;4.13;;;24.70;99.30;;;;;;5013113;28;20030;-49
2023/08/13 08:25:49;;;;;;;5.30;4.28;;;24.80;99.30;;;;;;5012627;28;20126;-48
2023/08/13 08:28:35;;;;;;;7.50;6.18;;;24.90;98.30;;;;;;5013119;28;20067;-50
2023/08/13 08:31:21;;;;;;;7.50;4.97;;;24.80;98.70;;;;;;5012892;28;20038;-51
2023/08/13 08:34:07;;;;;;;4.35;3.92;;;24.80;98.40;;;;;;5012673;28;20061;-44
2023/08/13 08:36:53;;;;;;;5.80;4.20;;;24.70;98.00;;;;;;5012911;28;20086;-47
2023/08/13 08:39:39;;;;;;;4.53;4.13;;;24.60;98.30;;;;;;5012904;28;20088;-47
2023/08/13 08:42:30;;;;;;;8.43;4.65;;;24.70;98.50;;;;;;5012832;28;20050;-44
2023/08/13 08:45:17;;;;;;;5.10;4.47;;;24.80;98.40;;;;;;5012155;28;20168;-48
2023/08/13 08:48:07;;;;;;;5.63;4.40;;;25.00;98.10;;;;;;5011080;28;20490;-47
2023/08/13 08:50:53;;;;;;;6.07;4.60;;;24.80;98.10;;;;;;5011196;28;20034;-46
2023/08/13 08:53:40;;;;;;;6.30;4.10;;;24.70;98.30;;;;;;5011192;28;20558;-52
2023/08/13 08:56:26;;;;;;;6.50;4.03;;;24.80;98.30;;;;;;5011511;28;20116;-45
2023/08/13 08:59:12;;;;;;;5.20;3.92;;;24.60;97.00;;;;;;5011675;28;20483;-47
2023/08/13 09:01:58;;;;;;;5.03;3.88;;;24.70;97.90;;;;;;5011127;28;20083;-51
2023/08/13 09:04:44;;;;;;;4.57;3.75;;;24.80;98.10;;;;;;5010915;28;20568;-49
2023/08/13 09:07:31;;;;;;;7.15;4.13;;;24.60;97.60;;;;;;5010148;28;20786;-46
2023/08/13 09:10:17;;;;;;;5.65;4.00;;;24.50;97.90;;;;;;5011196;28;20028;-50
2023/08/13 09:13:03;;;;;;;6.50;4.10;;;24.60;97.90;;;;;;5011020;28;20026;-50
2023/08/13 09:15:49;;;;;;;7.03;4.22;;;24.60;97.90;;;;;;4997275;28;20399;-51
2023/08/13 09:18:39;;;;;;;5.10;3.80;;;24.70;97.60;;;;;;5010779;28;20034;-52
2023/08/13 09:21:25;;;;;;;4.55;3.90;;;24.70;96.50;;;;;;5010404;28;20030;-45
2023/08/13 09:24:11;;;;;;;7.05;4.00;;;24.60;97.10;;;;;;4996953;28;20108;-48
2023/08/13 09:26:58;;;;;;;4.88;3.85;;;24.60;97.60;;;;;;5011003;28;20034;-47
2023/08/13 09:29:43;;;;;;;5.63;3.97;;;24.80;97.50;;;;;;5010787;28;20570;-49
2023/08/13 09:32:29;;;;;;;5.75;4.13;;;25.00;97.20;;;;;;5011149;28;20113;-48
2023/08/13 09:35:16;;;;;;;5.13;4.03;;;25.10;97.70;;;;;;5010436;28;20030;-49
2023/08/13 09:38:02;;;;;;;5.85;4.22;;;25.40;97.60;;;;;;5010395;28;20030;-48
2023/08/13 09:40:48;;;;;;;6.90;5.10;;;25.70;96.40;;;;;;4996234;28;20026;-49
2023/08/13 09:43:37;;;;;;;5.30;4.30;;;25.70;96.70;;;;;;4973413;28;1074148;-44
2023/08/13 09:46:27;;;;;;;6.30;4.85;;;25.60;96.60;;;;;;5010955;28;20030;-50
2023/08/13 09:49:15;;;;;;;5.38;3.88;;;25.40;96.80;;;;;;5011162;28;20037;-47
2023/08/13 09:52:11;;;;;;;5.70;4.78;;;25.50;96.60;;;;;;5011449;28;20450;-51
2023/08/13 09:55:13;;;;;;;6.85;4.90;;;25.70;96.40;;;;;;5011186;28;20394;-50
2023/08/13 09:58:01;;;;;;;6.90;4.25;;;25.50;95.40;;;;;;5011204;28;20026;-46
2023/08/13 10:00:47;;;;;;;5.80;4.88;;;25.50;94.60;;;;;;5011252;28;20060;-44
2023/08/13 10:03:34;;;;;;;7.72;4.82;;;25.50;94.80;;;;;;5011793;28;20045;-47
2023/08/13 10:06:21;;;;;;;7.32;4.80;;;25.50;95.00;;;;;;5011396;28;20551;-57
2023/08/13 10:09:08;;;;;;;7.38;5.13;;;25.50;94.70;;;;;;5010568;28;20465;-57
2023/08/13 10:11:54;;;;;;;7.95;4.90;;;25.40;95.20;;;;;;5010747;28;20080;-56
2023/08/13 10:14:41;;;;;;;7.07;5.75;;;25.40;95.30;;;;;;5011244;28;20117;-57
2023/08/13 10:17:28;;;;;;;6.65;5.97;;;25.50;95.60;;;;;;5009687;28;20443;-55
2023/08/13 10:20:16;;;;;;;7.07;6.30;;;25.80;95.80;;;;;;5011039;28;20045;-57
2023/08/13 10:23:07;;;;;;;7.45;6.75;;;25.70;95.80;;;;;;5011459;28;20057;-54
2023/08/13 10:25:53;;;;;;;7.65;6.90;;;25.70;95.70;;;;;;5011059;28;20486;-50
2023/08/13 10:28:39;;;;;;;9.23;6.95;;;25.80;95.40;;;;;;5011035;28;20034;-52
2023/08/13 10:31:29;;;;;;;10.27;6.55;;;25.90;95.60;;;;;;5011068;28;20026;-55
2023/08/13 10:34:18;;;;;;;6.78;6.18;;;25.90;95.30;;;;;;5009872;28;20441;-54
2023/08/13 10:37:30;;;;;;;7.13;6.10;;;25.90;94.30;;;;;;5011031;28;20072;-54
2023/08/13 10:40:18;;;;;;;6.38;5.78;;;25.70;94.00;;;;;;5010458;28;20030;-55
2023/08/13 10:43:04;;;;;;;6.80;6.10;;;25.60;94.10;;;;;;5010240;28;20074;-54
2023/08/13 10:45:50;;;;;;;6.80;5.50;;;25.80;93.80;;;;;;5010444;28;20022;-53
2023/08/13 10:48:36;;;;;;;7.40;5.78;;;26.20;93.40;;;;;;5010170;28;20033;-54
2023/08/13 10:51:23;;;;;;;6.10;5.45;;;26.30;92.20;;;;;;5010737;28;20030;-55
2023/08/13 10:54:10;;;;;;;8.25;6.00;;;26.40;92.30;;;;;;5011054;28;20033;-54
2023/08/13 10:56:59;;;;;;;6.63;5.75;;;26.50;92.40;;;;;;5010596;28;20030;-55
2023/08/13 10:59:45;;;;;;;6.55;5.20;;;26.70;92.20;;;;;;4997022;28;20542;-53
2023/08/13 11:02:31;;;;;;;6.80;5.72;;;26.90;92.10;;;;;;5011199;28;20517;-55
2023/08/13 11:05:18;;;;;;;6.32;5.70;;;26.90;91.80;;;;;;5010101;28;20052;-51
2023/08/13 11:08:04;;;;;;;7.15;6.22;;;26.90;91.70;;;;;;5010629;28;20034;-55
2023/08/13 11:10:52;;;;;;;7.28;5.65;;;27.00;91.90;;;;;;5010238;28;20105;-52
2023/08/13 11:13:38;;;;;;;6.57;5.82;;;27.00;92.10;;;;;;5010385;28;20018;-51
2023/08/13 11:16:28;;;;;;;6.53;4.50;;;27.10;92.00;;;;;;4996328;28;20033;-55
2023/08/13 11:19:14;;;;;;;5.65;4.30;;;27.20;91.90;;;;;;5010238;28;20030;-54
2023/08/13 11:22:01;;;;;;;6.40;4.20;;;26.90;91.80;;;;;;5010613;28;20042;-55
2023/08/13 11:24:47;;;;;;;5.43;4.00;;;26.80;92.30;;;;;;5009836;28;20106;-51
2023/08/13 11:27:35;;;;;;;5.45;4.32;;;26.70;92.40;;;;;;5010385;28;20495;-53
2023/08/13 11:30:21;;;;;;;5.80;3.88;;;26.80;92.60;;;;;;5012819;28;20111;-52
2023/08/13 11:33:07;;;;;;;5.25;4.20;;;26.90;92.40;;;;;;5013526;28;20026;-55
2023/08/13 11:35:56;;;;;;;4.88;4.35;;;26.90;92.40;;;;;;5013025;28;20026;-55
2023/08/13 11:38:42;;;;;;;5.93;4.20;;;27.00;92.20;;;;;;5014397;28;20024;-56
2023/08/13 11:41:28;;;;;;;8.65;5.57;;;27.00;92.30;;;;;;4999889;28;20030;-56
2023/08/13 11:44:14;;;;;;;7.07;4.45;;;27.00;92.30;;;;;;5013640;28;20034;-56
2023/08/13 11:47:00;;;;;;;5.05;4.10;;;27.20;92.60;;;;;;5012947;28;20034;-56
2023/08/13 11:49:46;;;;;;;4.20;3.80;;;27.50;92.00;;;;;;5012875;28;20069;-56
2023/08/13 11:52:32;;;;;;;4.70;3.65;;;27.50;91.40;;;;;;5012656;28;20022;-56
2023/08/13 11:55:18;;;;;;;5.70;4.47;;;27.60;91.70;;;;;;4999556;28;20110;-57
2023/08/13 11:58:04;;;;;;;4.20;3.67;;;27.90;91.40;;;;;;5012573;28;20022;-56
2023/08/13 12:00:50;;;;;;;5.30;3.70;;;28.00;91.10;;;;;;5013079;28;20018;-56
2023/08/13 12:03:41;;;;;;;4.75;3.47;;;27.80;90.90;;;;;;5013380;28;20073;-54
2023/08/13 12:06:27;;;;;;;6.40;4.22;;;27.60;90.80;;;;;;5013683;28;20025;-51
2023/08/13 12:09:13;;;;;;;3.80;3.35;;;27.50;91.10;;;;;;5013325;28;20557;-53
2023/08/13 12:12:00;;;;;;;7.32;4.40;;;27.60;91.00;;;;;;5013737;28;20034;-52
2023/08/13 12:14:46;;;;;;;5.53;3.75;;;27.90;91.20;;;;;;5013769;28;20728;-53
2023/08/13 12:17:32;;;;;;;4.25;3.60;;;28.30;91.40;;;;;;5013682;28;20033;-55
2023/08/13 12:20:18;;;;;;;4.32;3.50;;;28.40;91.30;;;;;;5013634;28;20104;-56
2023/08/13 12:23:04;;;;;;;7.80;3.53;;;28.80;90.80;;;;;;5013888;28;20033;-55
2023/08/13 12:25:50;;;;;;;3.88;3.28;;;28.70;89.10;;;;;;5013694;28;20473;-55
2023/08/13 12:28:36;;;;;;;3.95;3.30;;;28.40;88.00;;;;;;5013381;28;20041;-52
2023/08/13 12:31:22;;;;;;;5.22;3.72;;;28.50;89.60;;;;;;5013673;28;20054;-55
2023/08/13 12:34:08;;;;;;;5.65;3.50;;;28.70;90.20;;;;;;5013461;28;20630;-55
2023/08/13 12:36:54;;;;;;;4.45;3.55;;;28.90;90.50;;;;;;5013281;28;20026;-54
2023/08/13 12:39:40;;;;;;;4.88;3.50;;;29.00;90.30;;;;;;5013269;28;20022;-54
2023/08/13 12:42:26;;;;;;;5.95;4.10;;;29.10;89.90;;;;;;4998555;28;20037;-56
2023/08/13 12:45:12;;;;;;;3.90;3.35;;;29.20;90.00;;;;;;5012778;28;20060;-57
2023/08/13 12:47:58;;;;;;;4.20;3.60;;;29.30;88.80;;;;;;4999291;28;20124;-52
2023/08/13 12:50:44;;;;;;;4.20;3.10;;;29.10;86.60;;;;;;5012673;28;20165;-55
2023/08/13 12:53:30;;;;;;;4.25;3.85;;;28.70;86.40;;;;;;5011443;28;20376;-56
2023/08/13 12:56:19;;;;;;;4.90;3.50;;;28.80;87.10;;;;;;5012918;28;20022;-56
2023/08/13 12:59:05;;;;;;;4.85;3.40;;;29.00;87.10;;;;;;5012032;28;20030;-55
2023/08/13 13:01:51;;;;;;;5.32;3.45;;;29.30;87.00;;;;;;4998831;28;20068;-56
2023/08/13 13:04:36;;;;;;;6.07;3.35;;;29.60;87.30;;;;;;5012160;28;20034;-53
2023/08/13 13:07:23;;;;;;;4.75;3.17;;;29.60;87.40;;;;;;5012863;28;20030;-56
2023/08/13 13:10:09;;;;;;;6.00;3.53;;;29.50;87.40;;;;;;5012751;28;20034;-56
2023/08/13 13:12:55;;;;;;;5.75;3.85;;;29.60;87.60;;;;;;5012368;28;20080;-53
2023/08/13 13:15:41;;;;;;;4.35;3.20;;;29.70;87.70;;;;;;5011670;28;20026;-56
2023/08/13 13:18:27;;;;;;;4.00;3.60;;;29.80;87.70;;;;;;5012318;28;20037;-54
2023/08/13 13:21:12;;;;;;;4.60;3.67;;;29.80;86.80;;;;;;4999115;28;20030;-54
2023/08/13 13:23:59;;;;;;;4.03;3.20;;;29.90;86.90;;;;;;5013832;28;20033;-55
2023/08/13 13:26:45;;;;;;;4.47;3.00;;;29.90;86.60;;;;;;5012698;28;20387;-54
2023/08/13 13:29:31;;;;;;;6.03;3.55;;;30.00;86.80;;;;;;5012496;28;20033;-52
2023/08/13 13:32:18;;;;;;;3.88;3.30;;;30.10;87.50;;;;;;5012944;28;20405;-48
2023/08/13 13:35:05;;;;;;;5.85;3.92;;;30.20;85.90;;;;;;5012106;28;20026;-49
2023/08/13 13:37:51;;;;;;;4.35;3.47;;;30.10;85.90;;;;;;5012313;28;20053;-57
2023/08/13 13:40:38;;;;;;;5.70;3.40;;;30.00;86.00;;;;;;5012245;28;20065;-54
2023/08/13 13:43:24;;;;;;;4.20;3.80;;;29.90;86.10;;;;;;5012523;28;20038;-54
2023/08/13 13:46:09;;;;;;;5.10;3.83;;;29.80;85.60;;;;;;5012064;28;20033;-53
2023/08/13 13:48:55;;;;;;;5.05;3.67;;;29.80;85.80;;;;;;5012082;28;20022;-54
2023/08/13 13:51:42;;;;;;;5.53;3.72;;;29.90;86.10;;;;;;5011854;28;20023;-53
2023/08/13 13:54:29;;;;;;;4.85;4.35;;;30.00;86.20;;;;;;5012707;28;20152;-55
2023/08/13 13:57:14;;;;;;;5.13;3.88;;;29.80;85.60;;;;;;5011846;28;20036;-57
2023/08/13 14:00:02;;;;;;;3.95;3.40;;;29.80;85.90;;;;;;5012616;28;20057;-57
2023/08/13 14:02:48;;;;;;;4.63;3.80;;;29.90;86.00;;;;;;5011119;28;20026;-57
2023/08/13 14:05:34;;;;;;;4.00;3.60;;;29.70;85.70;;;;;;5011931;28;20026;-54
2023/08/13 14:08:20;;;;;;;4.38;3.53;;;29.70;86.00;;;;;;5011686;28;20108;-53
2023/08/13 14:11:06;;;;;;;5.60;3.80;;;30.00;85.50;;;;;;5011717;28;20073;-55
2023/08/13 14:13:52;;;;;;;5.18;3.75;;;30.10;85.60;;;;;;4997398;28;20026;-57
2023/08/13 14:16:38;;;;;;;5.57;3.50;;;30.20;86.10;;;;;;5010503;28;20493;-55
2023/08/13 14:19:24;;;;;;;5.20;4.00;;;30.20;86.10;;;;;;5011916;28;20032;-53
2023/08/13 14:22:10;;;;;;;4.95;3.78;;;30.30;85.90;;;;;;4998278;28;20376;-56
2023/08/13 14:24:56;;;;;;;5.05;3.67;;;30.20;85.90;;;;;;5011989;28;20029;-55